METAR AND TAF INFORMATION

METAR FOR LEZL
ADDS - METARS form results

(2236 UTC 19 August 2022)
Data provider http://aviationweather.gov/metar/data/
 
METAR text: LEZL 192230Z 27006KT CAVOK 28/10 Q1015 NOSIG
Conditions at: LEZL (SEVILLA (CIV/MIL, ES) observed 2230 UTC 19 August 2022
Temperature: 28.0°C (82°F)
Dewpoint: 10.0°C (50°F) [RH = 32%]
Pressure (altimeter): 29.97 inches Hg (1015.0 mb)
Winds: from the W (270 degrees) at 7 MPH (6 knots; 3.1 m/s)
Visibility: 6 or more miles (10+ km)
Ceiling: ceiling and visibility are OK
Clouds: unknown
Weather: no significant weather observed at this time

METAR text: LEZL 192200Z 27006KT 240V300 CAVOK 30/11 Q1015 NOSIG
Conditions at: LEZL (SEVILLA (CIV/MIL, ES) observed 2200 UTC 19 August 2022
Temperature: 30.0°C (86°F)
Dewpoint: 11.0°C (52°F) [RH = 31%]
Pressure (altimeter): 29.97 inches Hg (1015.0 mb)
Winds: from the W (270 degrees) at 7 MPH (6 knots; 3.1 m/s)
Visibility: 6 or more miles (10+ km)
Ceiling: ceiling and visibility are OK
Clouds: unknown
Weather: no significant weather observed at this time

Forecast for: LEZL (SEVILLA (CIV/MIL, ES)
Text: TAF LEZL 192000Z 1921/2021 23008KT CAVOK TX39/2015Z TN20/2005Z
Forecast period: 2100 UTC 19 August 2022 to 2100 UTC 20 August 2022
Forecast type: FROM: standard forecast or significant change
Winds: from the SW (230 degrees) at 9 MPH (8 knots; 4.1 m/s)
Visibility: 6 or more miles (10+ km)
Ceiling: unknown
Clouds: missing
Weather: no significant weather forecast for this period

 

AIRPORT MAP

 

RUNWAY INFORMATION

Runway 09 Runway length 11024 ft Runway width 148 ft
Runway elevation 83 ft Runway displaced threshold 0 ft Runway heading 90
Runway 27 Runway length 11024 ft Runway width 148 ft
Runway elevation 111 ft Runway displaced threshold 0 ft Runway heading 270

 

AIRPORT FREQUENCIES

Type APP Name APP Frequency 120 MHZ
Type ATIS Name ATIS Frequency 118.175 MHZ
Type GND Name GND Frequency 121.7 MHZ
Type TWR Name TWR Frequency 118.1 MHZ

 

AIRPORT NEAR NAVIGATION AIDS

Type NDB Name Sevilla Frequency 420 KHZ
Type VOR-DME Name Sevilla Frequency 113700 KHZ